Time;durP1;ratioP1;P1;durP2;ratioP2;P2;SDS_P1;SDS_P2;PMS_P1;PMS_P2;Temp;Humidity;BMP_temperature;BMP_pressure;BME280_temperature;BME280_humidity;BME280_pressure;Samples;Min_cycle;Max_cycle;Signal;HPM_P1;HPM_P2
2021/06/17 00:00:27;;;;;;;11.37;7.10;;;;;;;-144.99;63.03;52128.09;5018688;28;20228;-58
2021/06/17 00:02:57;;;;;;;11.83;6.83;;;;;;;-144.99;63.04;52134.22;5017369;28;20211;-58
2021/06/17 00:05:26;;;;;;;11.30;6.87;;;;;;;-144.99;63.07;52146.44;5014396;28;20233;-58
2021/06/17 00:07:56;;;;;;;9.37;6.80;;;;;;;-144.99;62.94;52121.97;5011445;28;20232;-58
2021/06/17 00:10:28;;;;;;;16.00;7.33;;;;;;;-144.99;62.96;52130.13;5010428;28;20211;-58
2021/06/17 00:12:59;;;;;;;13.80;6.40;;;;;;;-144.99;63.03;52119.94;5013540;28;20664;-58
2021/06/17 00:15:28;;;;;;;11.13;7.40;;;;;;;-144.99;62.88;52134.22;5021094;28;20659;-58
2021/06/17 00:17:58;;;;;;;14.87;9.63;;;;;;;-144.99;62.90;52142.38;5016409;28;20230;-58
2021/06/17 00:20:29;;;;;;;12.93;8.57;;;;;;;-144.99;62.83;52093.44;5017098;28;20211;-58
2021/06/17 00:22:58;;;;;;;11.03;7.07;;;;;;;-144.99;62.65;52185.16;5024750;28;20201;-58
2021/06/17 00:25:27;;;;;;;11.03;8.47;;;;;;;-144.99;62.69;52154.59;5030047;28;20212;-58
2021/06/17 00:27:54;;;;;;;9.67;6.63;;;;;;;-144.99;62.55;52134.22;5030484;28;20610;-58
2021/06/17 00:30:24;;;;;;;13.47;6.63;;;;;;;-144.99;62.54;52138.28;5029887;28;20203;-58
2021/06/17 00:32:51;;;;;;;10.37;6.73;;;;;;;-144.99;62.46;52174.97;5020974;28;20195;-58
2021/06/17 00:35:19;;;;;;;8.63;7.20;;;;;;;-144.99;62.38;52109.75;5031175;28;20233;-58
2021/06/17 00:37:45;;;;;;;10.60;5.53;;;;;;;-144.99;62.35;52142.38;5030931;28;20215;-58
2021/06/17 00:40:14;;;;;;;10.33;7.80;;;;;;;-144.99;62.18;52138.28;5026132;28;20212;-59
2021/06/17 00:42:54;;;;;;;8.90;5.90;;;;;;;-144.99;62.29;52140.31;5030914;28;20206;-59
2021/06/17 00:45:24;;;;;;;5.80;4.37;;;;;;;-144.99;61.91;52150.53;5030762;28;20695;-59
2021/06/17 00:47:52;;;;;;;12.20;5.53;;;;;;;-144.99;61.97;52138.28;5023306;28;20230;-60
2021/06/17 00:50:23;;;;;;;8.50;5.87;;;;;;;-144.99;61.89;52146.44;5029371;28;20319;-60
2021/06/17 00:52:53;;;;;;;7.83;6.13;;;;;;;-144.99;61.75;52138.28;5025877;28;20225;-59
2021/06/17 00:55:22;;;;;;;8.00;5.83;;;;;;;-144.99;61.65;52117.91;5030916;28;20224;-59
2021/06/17 00:57:50;;;;;;;8.43;5.83;;;;;;;-144.99;61.70;52148.47;5030617;28;20267;-59
2021/06/17 01:00:19;;;;;;;10.90;6.30;;;;;;;-144.99;61.54;52154.59;5023995;28;20597;-59
2021/06/17 01:02:48;;;;;;;7.87;5.20;;;;;;;-144.99;61.45;52138.28;5027990;28;20210;-59
2021/06/17 01:05:23;;;;;;;5.40;4.10;;;;;;;-144.99;61.31;52162.75;5030777;28;20238;-58
2021/06/17 01:08:00;;;;;;;9.97;5.67;;;;;;;-144.99;61.24;52154.59;5030086;28;20234;-59
2021/06/17 01:10:38;;;;;;;5.83;5.23;;;;;;;-144.99;61.41;52136.25;5029107;28;20201;-59
2021/06/17 01:13:24;;;;;;;8.60;4.47;;;;;;;-144.99;61.34;52111.78;5030016;28;20209;-60
2021/06/17 01:16:05;;;;;;;10.80;4.87;;;;;;;-144.99;61.22;52138.28;5034541;28;20218;-60
2021/06/17 01:18:36;;;;;;;9.23;6.33;;;;;;;-144.99;61.09;52126.06;5029823;28;20268;-62
2021/06/17 01:21:11;;;;;;;8.70;5.63;;;;;;;-144.99;61.05;52183.13;5035880;28;20211;-62
2021/06/17 01:24:15;;;;;;;8.50;5.77;;;;;;;-144.99;60.94;52179.06;5036798;28;20597;-61
2021/06/17 01:26:57;;;;;;;6.43;4.30;;;;;;;-144.99;60.79;52187.19;5037544;28;20209;-61
2021/06/17 01:29:28;;;;;;;9.47;6.03;;;;;;;-144.99;60.96;52138.28;5035010;28;20237;-61
2021/06/17 01:31:55;;;;;;;8.17;4.73;;;;;;;-144.99;60.82;52166.81;5039397;28;20631;-62
2021/06/17 01:34:23;;;;;;;12.80;8.13;;;;;;;-144.99;60.88;52109.75;5038235;28;20253;-61
2021/06/17 01:36:59;;;;;;;6.37;5.63;;;;;;;-144.99;60.80;52172.94;5032930;28;20247;-61
2021/06/17 01:39:27;;;;;;;7.37;4.73;;;;;;;-144.99;60.75;52179.06;5034188;28;20227;-60
2021/06/17 01:41:54;;;;;;;7.50;5.07;;;;;;;-144.99;60.75;52109.75;5024750;28;20214;-60
2021/06/17 01:44:23;;;;;;;8.07;4.43;;;;;;;-144.99;60.71;52146.44;5036722;28;20221;-61
2021/06/17 01:46:53;;;;;;;8.67;4.83;;;;;;;-144.99;60.79;52154.59;5033382;28;20233;-61
2021/06/17 01:49:20;;;;;;;8.07;4.53;;;;;;;-144.99;60.55;52162.75;5031260;28;20249;-61
2021/06/17 01:51:49;;;;;;;11.73;3.67;;;;;;;-144.99;60.44;52158.66;5034555;28;20342;-61
2021/06/17 01:54:26;;;;;;;9.53;3.80;;;;;;;-144.99;60.59;52154.59;5030498;28;20221;-60
2021/06/17 01:56:57;;;;;;;7.17;5.20;;;;;;;-144.99;60.64;52195.34;5030206;28;20217;-61
2021/06/17 01:59:29;;;;;;;5.47;4.37;;;;;;;-144.99;60.50;52158.66;5030184;28;20236;-60
2021/06/17 02:02:02;;;;;;;9.37;5.10;;;;;;;-144.99;60.62;52138.28;5026925;28;20217;-60
2021/06/17 02:04:34;;;;;;;6.57;3.83;;;;;;;-144.99;60.48;52156.63;5029862;28;20202;-61
2021/06/17 02:07:01;;;;;;;5.90;4.03;;;;;;;-144.99;60.50;52130.13;5029414;28;20230;-62
2021/06/17 02:09:28;;;;;;;4.67;3.73;;;;;;;-144.99;60.44;52134.22;5029067;28;20226;-61
2021/06/17 02:11:59;;;;;;;5.27;4.37;;;;;;;-144.99;60.52;52158.66;5028490;28;20194;-61
2021/06/17 02:14:26;;;;;;;9.57;4.13;;;;;;;-144.99;60.48;52162.75;5026499;28;20275;-61
2021/06/17 02:16:56;;;;;;;7.47;4.43;;;;;;;-144.99;60.48;52179.06;5029329;28;20218;-61
2021/06/17 02:19:32;;;;;;;11.43;5.40;;;;;;;-144.99;60.59;52121.97;5029814;28;20260;-61
2021/06/17 02:22:01;;;;;;;6.93;4.70;;;;;;;-144.99;60.68;52154.59;5027464;28;20733;-61
2021/06/17 02:24:33;;;;;;;10.20;4.70;;;;;;;-144.99;60.63;52146.44;5017950;28;20214;-61
2021/06/17 02:27:12;;;;;;;12.20;4.97;;;;;;;-144.99;60.75;52183.13;5019311;28;20213;-61
2021/06/17 02:29:41;;;;;;;6.60;3.67;;;;;;;-144.99;60.80;52168.84;5019613;28;20614;-61
2021/06/17 02:32:19;;;;;;;10.57;4.37;;;;;;;-144.99;60.57;52162.75;5013291;28;20235;-61
2021/06/17 02:34:53;;;;;;;6.37;4.13;;;;;;;-144.99;60.70;52170.91;5021668;28;20224;-61
2021/06/17 02:37:21;;;;;;;6.67;4.07;;;;;;;-144.99;60.73;52183.13;5014419;28;20204;-61
2021/06/17 02:39:50;;;;;;;8.10;4.03;;;;;;;-144.99;60.74;52156.63;5009150;28;20230;-61
2021/06/17 02:42:23;;;;;;;7.13;4.77;;;;;;;-144.99;60.80;52203.50;5008304;28;20214;-63
2021/06/17 02:44:51;;;;;;;6.40;3.97;;;;;;;-144.99;60.78;52174.97;5013139;28;20216;-62
2021/06/17 02:47:21;;;;;;;5.93;4.20;;;;;;;-144.99;60.77;52154.59;5009180;28;20235;-65
2021/06/17 02:49:55;;;;;;;5.10;3.43;;;;;;;-144.99;60.91;52195.34;5009471;28;20647;-65
2021/06/17 02:52:24;;;;;;;7.97;3.80;;;;;;;-144.99;60.90;52166.81;5007299;28;20227;-64
2021/06/17 02:54:51;;;;;;;6.20;3.93;;;;;;;-144.99;60.87;52177.00;5018464;28;20209;-64
2021/06/17 02:57:22;;;;;;;7.00;4.70;;;;;;;-144.99;60.93;52183.13;5019321;28;20297;-62
2021/06/17 03:00:05;;;;;;;5.13;3.50;;;;;;;-144.99;60.84;52162.75;5013768;28;20234;-62
2021/06/17 03:02:38;;;;;;;5.97;3.37;;;;;;;-144.99;60.80;52134.22;5011931;28;20211;-61
2021/06/17 03:05:15;;;;;;;7.67;5.83;;;;;;;-144.99;60.97;52191.28;5020304;28;20203;-62
2021/06/17 03:07:46;;;;;;;6.03;3.53;;;;;;;-144.99;61.07;52191.28;5014298;28;20234;-61
2021/06/17 03:10:17;;;;;;;5.63;3.90;;;;;;;-144.99;61.09;52166.81;5013359;28;20217;-61
2021/06/17 03:12:48;;;;;;;6.83;3.90;;;;;;;-144.99;61.15;52162.75;5014409;28;20698;-61
2021/06/17 03:15:16;;;;;;;4.57;3.23;;;;;;;-144.99;61.16;52134.22;5019312;28;20717;-61
2021/06/17 03:17:46;;;;;;;15.93;4.10;;;;;;;-144.99;61.25;52174.97;5017827;28;20672;-61
2021/06/17 03:20:18;;;;;;;7.67;3.53;;;;;;;-144.99;61.01;52154.59;5013306;28;20218;-61
2021/06/17 03:22:52;;;;;;;7.60;4.40;;;;;;;-144.99;61.06;52183.13;5013270;28;20218;-60
2021/06/17 03:25:22;;;;;;;4.83;3.53;;;;;;;-144.99;61.04;52183.13;5026670;28;20392;-60
2021/06/17 03:27:54;;;;;;;6.23;4.07;;;;;;;-144.99;61.28;52183.13;5032048;28;20240;-61
2021/06/17 03:30:30;;;;;;;9.47;4.60;;;;;;;-144.99;61.19;52162.75;5032479;28;20214;-61
2021/06/17 03:32:59;;;;;;;4.23;3.43;;;;;;;-144.99;61.12;52191.28;5032847;28;20216;-61
2021/06/17 03:35:29;;;;;;;7.23;3.87;;;;;;;-144.99;61.22;52203.50;5026706;28;20219;-63
2021/06/17 03:37:57;;;;;;;7.23;3.57;;;;;;;-144.99;61.24;52162.75;5032321;28;20229;-62
2021/06/17 03:40:25;;;;;;;8.60;4.23;;;;;;;-144.99;61.14;52174.97;5032442;28;20209;-64
2021/06/17 03:42:53;;;;;;;5.90;4.60;;;;;;;-144.99;61.22;52170.91;5033052;28;20229;-64
2021/06/17 03:45:22;;;;;;;6.07;3.90;;;;;;;-144.99;61.13;52168.84;5030597;28;20227;-63
2021/06/17 03:47:53;;;;;;;5.67;4.07;;;;;;;-144.99;61.05;52162.75;5031739;28;20256;-64
2021/06/17 03:50:23;;;;;;;7.47;4.13;;;;;;;-144.99;61.01;52138.28;5032100;28;20818;-64
2021/06/17 03:52:57;;;;;;;6.73;4.13;;;;;;;-144.99;61.03;52195.34;5031712;28;20626;-64
2021/06/17 03:55:24;;;;;;;9.30;4.40;;;;;;;-144.99;60.98;52166.81;5030254;28;20212;-64
2021/06/17 03:57:57;;;;;;;6.93;4.37;;;;;;;-144.99;60.79;52172.94;5028106;28;20225;-59
2021/06/17 04:00:26;;;;;;;7.30;5.53;;;;;;;-144.99;60.75;52191.28;5032012;28;20207;-60
2021/06/17 04:02:54;;;;;;;6.40;4.20;;;;;;;-144.99;60.83;52160.72;5031451;28;20218;-62
2021/06/17 04:05:22;;;;;;;7.47;4.67;;;;;;;-144.99;60.81;52136.25;5030330;28;20210;-62
2021/06/17 04:07:51;;;;;;;7.20;4.00;;;;;;;-144.99;60.75;52170.91;5031079;28;20237;-63
2021/06/17 04:10:24;;;;;;;6.60;4.10;;;;;;;-144.99;60.83;52195.34;5031900;28;20217;-62
2021/06/17 04:12:56;;;;;;;12.07;5.03;;;;;;;-144.99;60.61;52183.13;5032035;28;20323;-62
2021/06/17 04:15:27;;;;;;;9.40;4.17;;;;;;;-144.99;60.71;52156.63;5029913;28;20209;-63
2021/06/17 04:17:57;;;;;;;7.80;4.03;;;;;;;-144.99;60.82;52162.75;5026795;28;20222;-62
2021/06/17 04:20:27;;;;;;;5.80;3.87;;;;;;;-144.99;60.74;52203.50;5031704;28;20257;-62
2021/06/17 04:22:56;;;;;;;5.23;3.60;;;;;;;-144.99;60.66;52187.19;5031416;28;20558;-62
2021/06/17 04:25:30;;;;;;;8.00;4.13;;;;;;;-144.99;60.59;52162.75;5030477;28;20558;-62
2021/06/17 04:28:06;;;;;;;4.97;3.57;;;;;;;-144.99;60.71;52183.13;5029350;28;20720;-62
2021/06/17 04:30:34;;;;;;;5.87;2.80;;;;;;;-144.99;60.76;52170.91;5031029;28;20209;-62
2021/06/17 04:33:09;;;;;;;6.90;4.63;;;;;;;-144.99;60.64;52121.97;5031572;28;20206;-65
2021/06/17 04:35:41;;;;;;;7.00;3.90;;;;;;;-144.99;60.48;52174.97;5029364;28;20563;-65
2021/06/17 04:38:10;;;;;;;5.57;3.27;;;;;;;-144.99;60.59;52124.03;5031497;28;20585;-64
2021/06/17 04:40:42;;;;;;;6.87;5.03;;;;;;;-144.99;60.23;52132.19;5033455;22;20240;-63
2021/06/17 04:43:13;;;;;;;11.87;5.20;;;;;;;-144.99;60.24;52138.28;4985442;28;20226;-62
2021/06/17 04:45:42;;;;;;;10.63;3.43;;;;;;;-144.99;60.17;52138.28;4974360;28;20709;-60
2021/06/17 04:48:19;;;;;;;7.87;3.83;;;;;;;-144.99;60.13;52130.13;4971639;28;20236;-61
2021/06/17 04:50:46;;;;;;;4.87;3.60;;;;;;;-144.99;59.76;52166.81;4971474;28;20207;-60
2021/06/17 04:53:15;;;;;;;6.73;4.67;;;;;;;-144.99;60.14;52179.06;4972705;28;20215;-60
2021/06/17 04:55:49;;;;;;;6.77;3.33;;;;;;;-144.99;59.92;52134.22;4970409;28;20204;-60
2021/06/17 04:58:19;;;;;;;5.17;4.07;;;;;;;-144.99;60.21;52168.84;4971118;28;20224;-60
2021/06/17 05:00:47;;;;;;;6.33;3.73;;;;;;;-144.99;60.24;52130.13;4972121;28;20655;-62
2021/06/17 05:03:17;;;;;;;5.70;4.43;;;;;;;-144.99;60.48;52146.44;4971830;28;20721;-63
2021/06/17 05:05:52;;;;;;;6.60;4.13;;;;;;;-144.99;60.04;52146.44;4967918;28;20308;-62
2021/06/17 05:11:10;;;;;;;7.97;4.43;;;;;;;-144.99;59.74;52134.22;4957939;28;20215;-63
2021/06/17 05:13:42;;;;;;;7.70;4.70;;;;;;;-144.99;59.35;52150.53;4971572;28;20670;-63
2021/06/17 05:16:09;;;;;;;5.30;4.17;;;;;;;-144.99;59.13;52121.97;4970234;28;20208;-63
2021/06/17 05:18:35;;;;;;;5.43;4.03;;;;;;;-144.99;58.97;52113.84;4971718;28;20239;-64
2021/06/17 05:21:02;;;;;;;11.90;3.70;;;;;;;-144.99;59.15;52138.28;4970297;28;20295;-63
2021/06/17 05:23:35;;;;;;;9.27;4.63;;;;;;;-144.99;58.72;52117.91;4972096;28;20243;-63
2021/06/17 05:26:04;;;;;;;8.27;4.17;;;;;;;-144.99;58.98;52126.06;4970177;28;20205;-63
2021/06/17 05:28:32;;;;;;;8.93;4.57;;;;;;;-144.99;58.53;52128.09;4967814;28;20245;-63
2021/06/17 05:31:01;;;;;;;13.50;7.50;;;;;;;-144.99;58.90;52132.19;4971211;28;20525;-64
2021/06/17 05:33:30;;;;;;;9.20;4.57;;;;;;;-144.99;58.41;52113.84;4971278;28;20222;-65
2021/06/17 05:36:01;;;;;;;6.93;3.77;;;;;;;-144.99;58.65;52134.22;4971079;28;20214;-64
2021/06/17 05:38:30;;;;;;;11.30;4.30;;;;;;;-144.99;58.44;52146.44;4969290;28;20229;-65
2021/06/17 05:40:57;;;;;;;6.23;4.33;;;;;;;-144.99;58.16;52099.56;4970759;28;20467;-63
2021/06/17 05:43:23;;;;;;;6.27;4.37;;;;;;;-144.99;57.96;52146.44;4970662;28;20301;-63
2021/06/17 05:45:54;;;;;;;5.37;4.47;;;;;;;-144.99;58.00;52121.97;4970417;28;20209;-63
2021/06/17 05:48:23;;;;;;;10.70;4.43;;;;;;;-144.99;57.40;52134.22;4968639;28;20234;-61
2021/06/17 05:50:53;;;;;;;12.33;4.87;;;;;;;-144.99;57.26;52146.44;4962950;28;20210;-63
2021/06/17 05:56:03;;;;;;;12.00;5.00;;;;;;;-144.99;57.03;52140.31;4970014;28;20256;-58
2021/06/17 05:58:31;;;;;;;14.40;5.73;;;;;;;-144.99;57.06;52146.44;4969055;28;20229;-59
2021/06/17 06:01:01;;;;;;;10.20;5.33;;;;;;;-144.99;57.35;52113.84;4970882;28;20265;-59
2021/06/17 06:03:34;;;;;;;5.93;4.33;;;;;;;-144.99;56.96;52126.06;4970118;28;20311;-59
2021/06/17 06:06:01;;;;;;;10.43;5.33;;;;;;;-144.99;57.26;52130.13;4967047;28;20221;-59
2021/06/17 06:08:28;;;;;;;10.93;4.83;;;;;;;-144.99;56.95;52121.97;4968351;28;20305;-58
2021/06/17 06:10:54;;;;;;;8.30;4.73;;;;;;;-144.99;56.28;52105.69;4969828;28;20208;-58
2021/06/17 06:13:21;;;;;;;10.20;4.53;;;;;;;-144.99;56.63;52111.78;4970274;28;20225;-59
2021/06/17 06:15:51;;;;;;;16.47;6.20;;;;;;;-144.99;56.54;52064.91;4965994;28;20226;-59
2021/06/17 06:18:19;;;;;;;27.80;8.77;;;;;;;-144.99;56.07;52097.53;4967245;28;20310;-57
2021/06/17 06:20:56;;;;;;;8.93;5.17;;;;;;;-144.99;55.69;52093.44;4970486;28;20234;-60
2021/06/17 06:23:26;;;;;;;11.43;5.67;;;;;;;-144.99;55.50;52166.81;4971773;28;20641;-61
2021/06/17 06:25:59;;;;;;;8.67;4.77;;;;;;;-144.99;55.40;52109.75;4973214;28;20215;-59
2021/06/17 06:28:31;;;;;;;7.83;5.23;;;;;;;-144.99;55.70;52134.22;4968973;28;20348;-59
2021/06/17 06:31:00;;;;;;;8.57;5.97;;;;;;;-144.99;55.56;52069.00;4962562;28;20294;-61
2021/06/17 06:33:28;;;;;;;9.17;5.60;;;;;;;-144.99;55.80;52060.84;4970362;28;20277;-62
2021/06/17 06:35:58;;;;;;;16.90;8.20;;;;;;;-144.99;55.10;52085.31;4970145;28;20215;-60
2021/06/17 06:38:25;;;;;;;9.47;5.63;;;;;;;-144.99;55.55;52109.75;4968283;28;20228;-61
2021/06/17 06:40:59;;;;;;;11.63;5.70;;;;;;;-144.99;55.21;52073.06;4969518;28;20239;-61
2021/06/17 06:43:25;;;;;;;7.13;5.37;;;;;;;-144.99;55.19;52085.31;4970003;28;20324;-61
2021/06/17 06:45:54;;;;;;;14.07;6.63;;;;;;;-144.99;55.06;52113.84;4969576;28;20227;-60
2021/06/17 06:48:21;;;;;;;7.80;5.40;;;;;;;-144.99;54.03;52064.91;4967764;28;20229;-61
2021/06/17 06:50:52;;;;;;;13.27;5.57;;;;;;;-144.99;54.53;52071.03;4966757;28;20220;-60
2021/06/17 06:53:19;;;;;;;12.27;5.70;;;;;;;-144.99;53.82;52089.38;4968931;28;20211;-60
2021/06/17 06:55:45;;;;;;;8.20;5.47;;;;;;;-144.99;54.07;52081.22;4968783;28;20210;-60
2021/06/17 06:58:13;;;;;;;10.07;5.97;;;;;;;-144.99;53.88;52073.06;4967264;28;20745;-61
2021/06/17 07:00:44;;;;;;;8.37;5.83;;;;;;;-144.99;54.33;52085.31;4970148;28;20214;-61
2021/06/17 07:03:14;;;;;;;6.17;5.10;;;;;;;-144.99;53.40;52066.97;4957371;28;20245;-63
2021/06/17 07:05:41;;;;;;;6.50;5.13;;;;;;;-144.99;53.26;52064.91;4969953;28;20209;-71
2021/06/17 07:08:14;;;;;;;10.40;5.57;;;;;;;-144.99;53.15;52064.91;4969078;28;20681;-70
2021/06/17 07:10:43;;;;;;;8.50;5.13;;;;;;;-144.99;52.73;52081.22;4969617;28;20356;-70
2021/06/17 07:13:14;;;;;;;7.90;5.47;;;;;;;-144.99;52.56;52073.06;4970283;28;20221;-69
2021/06/17 07:15:46;;;;;;;9.57;4.93;;;;;;;-144.99;52.86;52056.78;4969535;28;20218;-71
2021/06/17 07:18:19;;;;;;;10.80;5.33;;;;;;;-144.99;52.53;52064.91;4967991;28;20230;-70
2021/06/17 07:20:45;;;;;;;9.23;6.00;;;;;;;-144.99;52.41;52077.16;4969347;28;20215;-70
2021/06/17 07:23:14;;;;;;;7.73;5.57;;;;;;;-144.99;52.20;52069.00;4970515;28;20379;-71
2021/06/17 07:25:44;;;;;;;11.47;6.17;;;;;;;-144.99;52.33;52058.81;4969338;28;20219;-71
2021/06/17 07:28:10;;;;;;;8.33;6.20;;;;;;;-144.99;51.94;52044.53;4968418;28;20338;-70
2021/06/17 07:30:43;;;;;;;9.93;6.20;;;;;;;-144.99;52.61;52032.31;4971872;28;20606;-70
2021/06/17 07:33:09;;;;;;;10.07;6.20;;;;;;;-144.99;52.90;52044.53;4971953;28;20298;-69
2021/06/17 07:35:36;;;;;;;9.37;4.83;;;;;;;-144.99;51.92;52069.00;4969782;28;20216;-69
2021/06/17 07:38:03;;;;;;;9.00;4.67;;;;;;;-144.99;51.77;52056.78;4967919;28;20607;-69
2021/06/17 07:40:32;;;;;;;10.80;5.07;;;;;;;-144.99;51.88;52048.63;4968672;28;20563;-69
2021/06/17 07:42:58;;;;;;;6.37;4.80;;;;;;;-144.99;51.97;52026.19;4970743;28;20230;-71
2021/06/17 07:45:29;;;;;;;8.70;5.13;;;;;;;-144.99;51.72;52020.09;4972968;28;20216;-69
2021/06/17 07:47:58;;;;;;;10.40;6.30;;;;;;;-144.99;51.57;52020.09;4972167;28;20237;-64
2021/06/17 07:50:25;;;;;;;10.63;5.70;;;;;;;-144.99;51.75;52028.22;4970609;28;20231;-66
2021/06/17 07:52:52;;;;;;;9.63;5.60;;;;;;;-144.99;51.28;52044.53;4972298;28;20637;-67
2021/06/17 07:55:18;;;;;;;10.53;6.77;;;;;;;-144.99;51.25;52036.38;4963890;28;20211;-66
2021/06/17 07:57:46;;;;;;;7.20;5.13;;;;;;;-144.99;51.32;52016.00;4968297;28;20219;-66
2021/06/17 08:00:20;;;;;;;11.47;6.23;;;;;;;-144.99;51.22;52040.47;4969601;28;20210;-67
2021/06/17 08:02:52;;;;;;;10.90;6.03;;;;;;;-144.99;51.19;52007.84;4969942;28;20590;-66
2021/06/17 08:05:18;;;;;;;12.70;6.40;;;;;;;-144.99;50.62;52046.56;4971720;28;20230;-66
2021/06/17 08:07:51;;;;;;;7.97;6.30;;;;;;;-144.99;50.31;52028.22;4971771;28;20211;-67
2021/06/17 08:10:17;;;;;;;9.40;5.97;;;;;;;-144.99;50.65;51987.47;4971650;28;20232;-67
2021/06/17 08:12:44;;;;;;;9.27;6.03;;;;;;;-144.99;50.96;52020.09;4970931;28;20689;-68
2021/06/17 08:15:15;;;;;;;9.27;6.43;;;;;;;-144.99;50.25;52032.31;4968962;28;20201;-67
2021/06/17 08:17:45;;;;;;;7.60;6.30;;;;;;;-144.99;50.93;52028.22;4970314;28;20217;-69
2021/06/17 08:20:16;;;;;;;8.43;5.73;;;;;;;-144.99;50.13;52032.31;4971594;28;20227;-66
2021/06/17 08:22:48;;;;;;;7.83;6.57;;;;;;;-144.99;49.71;51999.69;4970487;28;20558;-66
2021/06/17 08:25:15;;;;;;;9.93;7.53;;;;;;;-144.99;50.00;52005.81;4970000;28;20221;-66
2021/06/17 08:27:42;;;;;;;8.93;6.40;;;;;;;-144.99;49.25;52032.31;4968532;28;20220;-67
2021/06/17 08:30:17;;;;;;;13.03;7.33;;;;;;;-144.99;49.53;51995.63;4968073;28;20316;-67
2021/06/17 08:32:49;;;;;;;11.97;6.80;;;;;;;-144.99;49.16;51985.44;4970968;28;20622;-66
2021/06/17 08:35:16;;;;;;;15.90;6.03;;;;;;;-144.99;49.24;52028.22;4969850;28;20212;-66
2021/06/17 08:37:43;;;;;;;10.87;7.00;;;;;;;-144.99;48.66;52036.38;4966901;28;20436;-66
2021/06/17 08:40:16;;;;;;;11.87;5.50;;;;;;;-144.99;48.07;52003.78;4971291;28;20546;-67
2021/06/17 08:42:43;;;;;;;14.67;5.83;;;;;;;-144.99;48.53;51991.56;4955492;28;20221;-67
2021/06/17 08:45:16;;;;;;;9.63;6.97;;;;;;;-144.99;48.17;52007.84;4950659;29;20306;-68
2021/06/17 08:47:46;;;;;;;16.83;6.30;;;;;;;-144.99;48.73;51991.56;4947634;29;20211;-67
2021/06/17 08:50:17;;;;;;;9.23;6.77;;;;;;;-144.99;48.44;52016.00;4944211;29;20231;-66
2021/06/17 08:52:44;;;;;;;8.77;6.00;;;;;;;-144.99;47.73;51930.41;4949243;29;20216;-67
2021/06/17 08:55:14;;;;;;;11.17;5.60;;;;;;;-144.99;47.35;51958.94;4948376;28;20208;-69
2021/06/17 08:57:41;;;;;;;8.70;6.43;;;;;;;-144.99;47.22;51926.34;4947441;28;20678;-66
2021/06/17 09:00:31;;;;;;;11.67;6.33;;;;;;;-144.99;47.04;51954.88;4947690;29;20659;-66
2021/06/17 09:03:00;;;;;;;14.87;7.23;;;;;;;-144.99;47.01;51991.56;4945899;29;20218;-68
2021/06/17 09:05:31;;;;;;;12.67;6.17;;;;;;;-144.99;47.02;51967.09;4949953;28;20677;-66
2021/06/17 09:08:04;;;;;;;7.00;4.97;;;;;;;-144.99;45.53;51973.22;4948250;28;20616;-69
2021/06/17 09:10:39;;;;;;;14.07;7.00;;;;;;;-144.99;46.46;51987.47;4949033;28;20243;-66
2021/06/17 09:13:12;;;;;;;15.60;6.80;;;;;;;-144.99;46.55;51952.81;4947940;28;20204;-68
2021/06/17 09:15:43;;;;;;;8.20;5.97;;;;;;;-144.99;46.31;51987.47;4951726;29;20216;-66
2021/06/17 09:18:31;;;;;;;10.83;5.47;;;;;;;-144.99;46.48;51895.75;4963267;28;20225;-67
2021/06/17 09:21:00;;;;;;;13.83;8.57;;;;;;;-144.99;46.49;51975.25;4950808;29;20311;-67
2021/06/17 09:23:48;;;;;;;9.27;7.03;;;;;;;-144.99;45.81;51987.47;4960797;28;20215;-66
2021/06/17 09:26:18;;;;;;;10.97;6.17;;;;;;;-144.99;45.55;51938.56;4951614;29;20260;-66
2021/06/17 09:28:48;;;;;;;11.87;7.77;;;;;;;-144.99;45.50;51942.63;4950629;28;20239;-68
2021/06/17 09:34:03;;;;;;;9.47;7.87;;;;;;;-144.99;45.40;51952.81;4947668;29;20264;-66
2021/06/17 09:36:34;;;;;;;10.17;7.63;;;;;;;-144.99;45.66;51926.34;4951401;29;20223;-66
2021/06/17 09:39:09;;;;;;;7.63;5.90;;;;;;;-144.99;45.34;51963.03;4951521;28;20228;-66
2021/06/17 09:41:38;;;;;;;7.50;5.60;;;;;;;-144.99;44.93;51942.63;4962726;28;20215;-67
2021/06/17 09:44:09;;;;;;;8.87;7.03;;;;;;;-144.99;45.27;51944.69;4970720;28;20220;-70
2021/06/17 09:46:37;;;;;;;7.27;5.90;;;;;;;-144.99;45.22;51926.34;4970280;28;20577;-66
2021/06/17 09:49:06;;;;;;;7.80;6.27;;;;;;;-144.99;44.19;51918.19;4970395;28;20223;-66
2021/06/17 09:51:37;;;;;;;9.80;6.27;;;;;;;-144.99;43.80;51934.50;4969407;28;20204;-67
2021/06/17 09:54:20;;;;;;;8.37;7.17;;;;;;;-144.99;44.30;51932.44;4970329;28;20283;-67
2021/06/17 09:56:55;;;;;;;9.27;5.40;;;;;;;-144.99;43.39;51938.56;4970728;28;20440;-66
2021/06/17 10:00:11;;;;;;;8.93;7.77;;;;;;;-144.99;43.61;51914.09;4970276;28;20691;-66
2021/06/17 10:02:42;;;;;;;13.53;6.30;;;;;;;-144.99;43.11;51903.91;4968872;28;20291;-66
2021/06/17 10:05:13;;;;;;;7.80;6.67;;;;;;;-144.99;42.97;51885.56;4968797;28;20496;-66
2021/06/17 10:07:40;;;;;;;8.50;6.17;;;;;;;-144.99;43.26;51914.09;4969708;28;20244;-66
2021/06/17 10:10:08;;;;;;;9.40;6.03;;;;;;;-144.99;43.13;51885.56;4969740;28;21361;-66
2021/06/17 10:12:35;;;;;;;11.60;6.10;;;;;;;-144.99;43.09;51869.28;4967383;28;20314;-67
2021/06/17 10:15:02;;;;;;;7.50;6.07;;;;;;;-144.99;43.19;51910.03;4970740;28;20219;-66
2021/06/17 10:17:34;;;;;;;10.00;6.40;;;;;;;-144.99;43.24;51905.97;4969788;28;20215;-67
2021/06/17 10:20:06;;;;;;;8.47;7.30;;;;;;;-144.99;43.39;51861.13;4969843;28;20582;-67
2021/06/17 10:22:37;;;;;;;9.37;6.10;;;;;;;-144.99;42.48;51934.50;4968624;28;20211;-66
2021/06/17 10:25:05;;;;;;;7.37;6.43;;;;;;;-144.99;42.35;51901.88;4969543;28;20801;-65
2021/06/17 10:27:37;;;;;;;9.13;5.57;;;;;;;-144.99;42.64;51893.72;4969613;28;20208;-67
2021/06/17 10:30:05;;;;;;;10.53;7.63;;;;;;;-144.99;42.95;51859.09;4968230;28;20611;-67
2021/06/17 10:32:36;;;;;;;11.40;5.60;;;;;;;-144.99;41.24;51871.31;4965230;28;20223;-66
2021/06/17 10:35:28;;;;;;;6.93;5.13;;;;;;;-144.99;40.91;51893.72;4966317;28;20616;-66
2021/06/17 10:37:56;;;;;;;7.73;5.30;;;;;;;-144.99;41.31;51897.81;4967517;28;20231;-66
2021/06/17 10:40:30;;;;;;;9.93;5.50;;;;;;;-144.99;40.63;51855.00;4969481;28;20299;-66
2021/06/17 10:43:01;;;;;;;10.73;5.90;;;;;;;-144.99;41.39;51869.28;4968426;28;20262;-66
2021/06/17 10:45:51;;;;;;;6.93;6.23;;;;;;;-144.99;41.58;51852.97;4966825;28;20211;-66
2021/06/17 10:48:40;;;;;;;12.48;6.28;;;;;;;-144.99;40.52;51901.88;4968967;28;20227;-66
2021/06/17 10:51:10;;;;;;;7.27;5.53;;;;;;;-144.99;41.71;51897.81;4964443;28;20630;-66
2021/06/17 10:53:55;;;;;;;8.67;6.70;;;;;;;-144.99;41.73;51885.56;4965925;28;20219;-66
2021/06/17 10:56:26;;;;;;;9.20;5.60;;;;;;;-144.99;42.09;51857.03;4966143;28;20207;-67
2021/06/17 10:58:54;;;;;;;7.73;6.93;;;;;;;-144.99;41.52;51844.81;4965044;28;20259;-67
2021/06/17 11:01:35;;;;;;;15.03;7.70;;;;;;;-144.99;41.33;51885.56;4966996;28;20363;-67
2021/06/17 11:04:08;;;;;;;11.90;6.53;;;;;;;-144.99;40.02;51875.38;4960650;28;20208;-66
2021/06/17 11:07:15;;;;;;;9.67;6.67;;;;;;;-144.99;40.69;51852.97;4968936;28;20294;-67
2021/06/17 11:09:56;;;;;;;8.75;6.38;;;;;;;-144.99;40.38;51808.13;4957778;28;20228;-67
2021/06/17 11:13:02;;;;;;;8.77;6.13;;;;;;;-144.99;40.65;51824.44;4970325;28;20231;-67
2021/06/17 11:15:40;;;;;;;8.60;6.22;;;;;;;-144.99;40.17;51848.91;4961196;28;20218;-68
2021/06/17 11:18:10;;;;;;;10.80;5.68;;;;;;;-144.99;39.78;51799.97;4971229;28;20223;-67
2021/06/17 11:20:45;;;;;;;10.18;6.05;;;;;;;-144.99;39.46;51820.38;4973422;28;20299;-69
2021/06/17 11:23:28;;;;;;;9.30;6.47;;;;;;;-144.99;39.79;51844.81;4971947;28;20203;-69
2021/06/17 11:25:59;;;;;;;14.20;7.93;;;;;;;-144.99;39.79;51840.75;4971026;28;20674;-66
2021/06/17 11:28:49;;;;;;;8.20;7.40;;;;;;;-144.99;39.87;51850.94;4974199;28;20254;-66
2021/06/17 11:31:38;;;;;;;8.30;6.22;;;;;;;-144.99;40.01;51830.56;4973334;28;20235;-67
2021/06/17 11:34:09;;;;;;;10.65;6.38;;;;;;;-144.99;39.42;51852.97;4967199;28;20303;-69
2021/06/17 11:36:36;;;;;;;7.55;6.38;;;;;;;-144.99;39.50;51840.75;4970749;28;20212;-67
2021/06/17 11:39:11;;;;;;;11.40;7.43;;;;;;;-144.99;39.72;51865.19;4973425;28;20228;-65
2021/06/17 11:41:42;;;;;;;7.18;6.03;;;;;;;-144.99;40.25;51852.97;4972811;28;20219;-66